sensor_id;sensor_type;location;lat;lon;timestamp;P1;durP1;ratioP1;P2;durP2;ratioP2
64244;SDS011;50584;29.058;-110.966;2023-03-01T00:00:15;3.25;;;1.83;;
64244;SDS011;50584;29.058;-110.966;2023-03-01T00:02:44;1.77;;;1.50;;
64244;SDS011;50584;29.058;-110.966;2023-03-01T00:05:24;2.08;;;0.90;;
64244;SDS011;50584;29.058;-110.966;2023-03-01T00:07:52;4.38;;;1.08;;
64244;SDS011;50584;29.058;-110.966;2023-03-01T00:10:18;1.10;;;0.80;;
64244;SDS011;50584;29.058;-110.966;2023-03-01T00:12:44;1.38;;;1.27;;
64244;SDS011;50584;29.058;-110.966;2023-03-01T00:15:09;4.68;;;3.08;;
64244;SDS011;50584;29.058;-110.966;2023-03-01T00:17:35;16.13;;;1.95;;
64244;SDS011;50584;29.058;-110.966;2023-03-01T00:20:01;3.13;;;2.00;;
64244;SDS011;50584;29.058;-110.966;2023-03-01T00:22:27;4.05;;;1.65;;
64244;SDS011;50584;29.058;-110.966;2023-03-01T00:24:53;3.53;;;1.55;;
64244;SDS011;50584;29.058;-110.966;2023-03-01T00:27:19;4.13;;;1.77;;
64244;SDS011;50584;29.058;-110.966;2023-03-01T00:29:45;2.33;;;1.58;;
64244;SDS011;50584;29.058;-110.966;2023-03-01T00:32:11;6.55;;;1.52;;
64244;SDS011;50584;29.058;-110.966;2023-03-01T00:34:37;5.35;;;1.70;;
64244;SDS011;50584;29.058;-110.966;2023-03-01T00:37:03;8.38;;;1.60;;
64244;SDS011;50584;29.058;-110.966;2023-03-01T00:39:31;5.00;;;1.70;;
64244;SDS011;50584;29.058;-110.966;2023-03-01T00:41:57;7.25;;;1.63;;
64244;SDS011;50584;29.058;-110.966;2023-03-01T00:44:23;4.30;;;1.38;;
64244;SDS011;50584;29.058;-110.966;2023-03-01T00:46:49;7.38;;;1.60;;
64244;SDS011;50584;29.058;-110.966;2023-03-01T00:49:14;6.13;;;1.90;;
64244;SDS011;50584;29.058;-110.966;2023-03-01T00:51:40;6.13;;;1.63;;
64244;SDS011;50584;29.058;-110.966;2023-03-01T00:54:09;7.25;;;1.45;;
64244;SDS011;50584;29.058;-110.966;2023-03-01T00:56:35;6.85;;;1.60;;
64244;SDS011;50584;29.058;-110.966;2023-03-01T00:59:01;8.63;;;2.05;;
64244;SDS011;50584;29.058;-110.966;2023-03-01T01:01:28;7.65;;;1.73;;
64244;SDS011;50584;29.058;-110.966;2023-03-01T01:04:04;6.13;;;1.92;;
64244;SDS011;50584;29.058;-110.966;2023-03-01T01:06:34;22.33;;;2.55;;
64244;SDS011;50584;29.058;-110.966;2023-03-01T01:09:00;4.40;;;1.50;;
64244;SDS011;50584;29.058;-110.966;2023-03-01T01:11:27;3.47;;;1.30;;
64244;SDS011;50584;29.058;-110.966;2023-03-01T01:13:53;5.43;;;1.75;;
64244;SDS011;50584;29.058;-110.966;2023-03-01T01:16:21;6.13;;;2.47;;
64244;SDS011;50584;29.058;-110.966;2023-03-01T01:18:47;10.43;;;2.90;;
64244;SDS011;50584;29.058;-110.966;2023-03-01T01:21:14;16.50;;;3.05;;
64244;SDS011;50584;29.058;-110.966;2023-03-01T01:23:41;9.73;;;3.58;;
64244;SDS011;50584;29.058;-110.966;2023-03-01T01:26:11;7.97;;;2.63;;
64244;SDS011;50584;29.058;-110.966;2023-03-01T01:28:37;5.20;;;2.88;;
64244;SDS011;50584;29.058;-110.966;2023-03-01T01:31:04;8.43;;;2.72;;
64244;SDS011;50584;29.058;-110.966;2023-03-01T01:33:30;6.35;;;2.42;;
64244;SDS011;50584;29.058;-110.966;2023-03-01T01:35:56;14.30;;;3.80;;
64244;SDS011;50584;29.058;-110.966;2023-03-01T01:38:22;15.05;;;2.97;;
64244;SDS011;50584;29.058;-110.966;2023-03-01T01:40:48;18.90;;;4.10;;
64244;SDS011;50584;29.058;-110.966;2023-03-01T01:45:43;14.13;;;3.25;;
64244;SDS011;50584;29.058;-110.966;2023-03-01T01:48:13;12.45;;;3.70;;
64244;SDS011;50584;29.058;-110.966;2023-03-01T01:50:40;8.25;;;2.63;;
64244;SDS011;50584;29.058;-110.966;2023-03-01T01:53:10;13.48;;;4.30;;
64244;SDS011;50584;29.058;-110.966;2023-03-01T01:55:39;15.75;;;3.80;;
64244;SDS011;50584;29.058;-110.966;2023-03-01T01:58:06;12.95;;;3.75;;
64244;SDS011;50584;29.058;-110.966;2023-03-01T02:00:34;16.92;;;4.53;;
64244;SDS011;50584;29.058;-110.966;2023-03-01T02:03:01;21.88;;;4.55;;
64244;SDS011;50584;29.058;-110.966;2023-03-01T02:08:05;22.05;;;4.40;;
64244;SDS011;50584;29.058;-110.966;2023-03-01T02:10:32;15.20;;;4.35;;
64244;SDS011;50584;29.058;-110.966;2023-03-01T02:13:01;18.35;;;4.70;;
64244;SDS011;50584;29.058;-110.966;2023-03-01T02:15:28;17.75;;;4.45;;
64244;SDS011;50584;29.058;-110.966;2023-03-01T02:17:56;10.82;;;4.38;;
64244;SDS011;50584;29.058;-110.966;2023-03-01T02:20:25;5.78;;;2.65;;
64244;SDS011;50584;29.058;-110.966;2023-03-01T02:22:52;10.95;;;2.10;;
64244;SDS011;50584;29.058;-110.966;2023-03-01T02:25:24;6.07;;;2.58;;
64244;SDS011;50584;29.058;-110.966;2023-03-01T02:30:29;9.68;;;2.28;;
64244;SDS011;50584;29.058;-110.966;2023-03-01T02:32:55;9.35;;;2.97;;
64244;SDS011;50584;29.058;-110.966;2023-03-01T02:35:29;18.30;;;2.65;;
64244;SDS011;50584;29.058;-110.966;2023-03-01T02:37:55;14.48;;;2.45;;
64244;SDS011;50584;29.058;-110.966;2023-03-01T02:40:22;5.50;;;2.17;;
64244;SDS011;50584;29.058;-110.966;2023-03-01T02:42:56;5.97;;;2.40;;
64244;SDS011;50584;29.058;-110.966;2023-03-01T02:45:22;9.18;;;2.45;;
64244;SDS011;50584;29.058;-110.966;2023-03-01T02:47:48;9.55;;;2.42;;
64244;SDS011;50584;29.058;-110.966;2023-03-01T02:52:47;5.28;;;2.13;;
64244;SDS011;50584;29.058;-110.966;2023-03-01T02:55:17;4.88;;;1.92;;
64244;SDS011;50584;29.058;-110.966;2023-03-01T02:57:44;15.73;;;2.47;;
64244;SDS011;50584;29.058;-110.966;2023-03-01T03:00:14;12.25;;;2.15;;
64244;SDS011;50584;29.058;-110.966;2023-03-01T03:02:48;7.72;;;1.95;;
64244;SDS011;50584;29.058;-110.966;2023-03-01T03:05:16;7.25;;;2.08;;
64244;SDS011;50584;29.058;-110.966;2023-03-01T03:07:43;8.43;;;2.63;;
64244;SDS011;50584;29.058;-110.966;2023-03-01T03:10:10;5.45;;;2.33;;
64244;SDS011;50584;29.058;-110.966;2023-03-01T03:12:37;6.82;;;2.83;;
64244;SDS011;50584;29.058;-110.966;2023-03-01T03:15:03;3.88;;;1.35;;
64244;SDS011;50584;29.058;-110.966;2023-03-01T03:17:37;10.95;;;1.63;;
64244;SDS011;50584;29.058;-110.966;2023-03-01T03:20:08;9.60;;;4.22;;
64244;SDS011;50584;29.058;-110.966;2023-03-01T03:22:37;5.57;;;1.98;;
64244;SDS011;50584;29.058;-110.966;2023-03-01T03:25:03;7.20;;;1.73;;
64244;SDS011;50584;29.058;-110.966;2023-03-01T03:27:29;8.35;;;1.88;;
64244;SDS011;50584;29.058;-110.966;2023-03-01T03:29:57;4.10;;;1.60;;
64244;SDS011;50584;29.058;-110.966;2023-03-01T03:32:23;3.85;;;1.48;;
64244;SDS011;50584;29.058;-110.966;2023-03-01T03:34:48;2.65;;;1.70;;
64244;SDS011;50584;29.058;-110.966;2023-03-01T03:37:14;8.32;;;2.33;;
64244;SDS011;50584;29.058;-110.966;2023-03-01T03:40:00;2.45;;;1.70;;
64244;SDS011;50584;29.058;-110.966;2023-03-01T03:42:26;11.07;;;1.77;;
64244;SDS011;50584;29.058;-110.966;2023-03-01T03:44:52;3.72;;;1.95;;
64244;SDS011;50584;29.058;-110.966;2023-03-01T03:47:18;5.63;;;3.22;;
64244;SDS011;50584;29.058;-110.966;2023-03-01T03:49:44;6.85;;;5.30;;
64244;SDS011;50584;29.058;-110.966;2023-03-01T03:52:09;8.75;;;2.00;;
64244;SDS011;50584;29.058;-110.966;2023-03-01T03:54:39;2.92;;;1.90;;
64244;SDS011;50584;29.058;-110.966;2023-03-01T03:57:05;6.57;;;2.72;;
64244;SDS011;50584;29.058;-110.966;2023-03-01T03:59:31;6.63;;;2.05;;
64244;SDS011;50584;29.058;-110.966;2023-03-01T04:01:57;10.45;;;2.92;;
64244;SDS011;50584;29.058;-110.966;2023-03-01T04:04:23;6.70;;;2.47;;
64244;SDS011;50584;29.058;-110.966;2023-03-01T04:06:49;14.43;;;2.58;;
64244;SDS011;50584;29.058;-110.966;2023-03-01T04:09:14;9.30;;;2.65;;
64244;SDS011;50584;29.058;-110.966;2023-03-01T04:11:40;19.02;;;3.20;;
64244;SDS011;50584;29.058;-110.966;2023-03-01T04:14:06;8.63;;;2.88;;
64244;SDS011;50584;29.058;-110.966;2023-03-01T04:16:32;13.60;;;4.18;;
64244;SDS011;50584;29.058;-110.966;2023-03-01T04:18:57;4.65;;;2.80;;
64244;SDS011;50584;29.058;-110.966;2023-03-01T04:21:24;13.20;;;3.20;;
64244;SDS011;50584;29.058;-110.966;2023-03-01T04:23:50;8.00;;;3.50;;
64244;SDS011;50584;29.058;-110.966;2023-03-01T04:26:18;14.77;;;2.70;;
64244;SDS011;50584;29.058;-110.966;2023-03-01T04:28:45;8.25;;;2.83;;
64244;SDS011;50584;29.058;-110.966;2023-03-01T04:31:18;3.13;;;2.47;;
64244;SDS011;50584;29.058;-110.966;2023-03-01T04:33:50;13.65;;;2.65;;
64244;SDS011;50584;29.058;-110.966;2023-03-01T04:36:20;6.63;;;2.40;;
64244;SDS011;50584;29.058;-110.966;2023-03-01T04:38:46;10.70;;;3.95;;
64244;SDS011;50584;29.058;-110.966;2023-03-01T04:41:15;12.43;;;2.45;;
64244;SDS011;50584;29.058;-110.966;2023-03-01T04:43:42;13.05;;;2.45;;
64244;SDS011;50584;29.058;-110.966;2023-03-01T04:46:08;10.40;;;2.85;;
64244;SDS011;50584;29.058;-110.966;2023-03-01T04:48:36;9.68;;;2.90;;
64244;SDS011;50584;29.058;-110.966;2023-03-01T04:51:02;4.28;;;2.30;;
64244;SDS011;50584;29.058;-110.966;2023-03-01T04:53:28;13.70;;;2.97;;
64244;SDS011;50584;29.058;-110.966;2023-03-01T04:55:55;6.95;;;2.50;;
64244;SDS011;50584;29.058;-110.966;2023-03-01T04:58:22;4.97;;;2.70;;
64244;SDS011;50584;29.058;-110.966;2023-03-01T05:00:48;8.38;;;2.33;;
64244;SDS011;50584;29.058;-110.966;2023-03-01T05:03:13;12.90;;;2.22;;
64244;SDS011;50584;29.058;-110.966;2023-03-01T05:05:44;3.88;;;2.22;;
64244;SDS011;50584;29.058;-110.966;2023-03-01T05:08:10;6.20;;;2.42;;
64244;SDS011;50584;29.058;-110.966;2023-03-01T05:10:46;10.30;;;3.38;;
64244;SDS011;50584;29.058;-110.966;2023-03-01T05:13:12;11.90;;;4.07;;
64244;SDS011;50584;29.058;-110.966;2023-03-01T05:15:56;13.30;;;3.90;;
64244;SDS011;50584;29.058;-110.966;2023-03-01T05:18:22;9.27;;;3.30;;
64244;SDS011;50584;29.058;-110.966;2023-03-01T05:20:54;12.88;;;3.28;;
64244;SDS011;50584;29.058;-110.966;2023-03-01T05:23:21;8.77;;;3.67;;
64244;SDS011;50584;29.058;-110.966;2023-03-01T05:25:47;5.47;;;3.42;;
64244;SDS011;50584;29.058;-110.966;2023-03-01T05:28:14;6.82;;;2.50;;
64244;SDS011;50584;29.058;-110.966;2023-03-01T05:30:40;8.00;;;3.60;;
64244;SDS011;50584;29.058;-110.966;2023-03-01T05:33:06;8.80;;;3.67;;
64244;SDS011;50584;29.058;-110.966;2023-03-01T05:35:41;8.05;;;3.60;;
64244;SDS011;50584;29.058;-110.966;2023-03-01T05:38:08;13.30;;;3.60;;
64244;SDS011;50584;29.058;-110.966;2023-03-01T05:40:34;10.63;;;3.45;;
64244;SDS011;50584;29.058;-110.966;2023-03-01T05:43:00;9.98;;;3.83;;
64244;SDS011;50584;29.058;-110.966;2023-03-01T05:45:27;11.55;;;4.30;;
64244;SDS011;50584;29.058;-110.966;2023-03-01T05:47:53;13.48;;;3.08;;
64244;SDS011;50584;29.058;-110.966;2023-03-01T05:52:46;10.50;;;4.22;;
64244;SDS011;50584;29.058;-110.966;2023-03-01T05:55:12;10.02;;;3.78;;
64244;SDS011;50584;29.058;-110.966;2023-03-01T05:57:38;15.15;;;3.80;;
64244;SDS011;50584;29.058;-110.966;2023-03-01T06:00:04;7.68;;;3.75;;
64244;SDS011;50584;29.058;-110.966;2023-03-01T06:02:31;7.47;;;3.83;;
64244;SDS011;50584;29.058;-110.966;2023-03-01T06:04:57;18.58;;;4.25;;
64244;SDS011;50584;29.058;-110.966;2023-03-01T06:07:23;8.57;;;3.40;;
64244;SDS011;50584;29.058;-110.966;2023-03-01T06:09:49;10.52;;;4.03;;
64244;SDS011;50584;29.058;-110.966;2023-03-01T06:12:14;11.10;;;3.30;;
64244;SDS011;50584;29.058;-110.966;2023-03-01T06:14:40;8.90;;;3.50;;
64244;SDS011;50584;29.058;-110.966;2023-03-01T06:17:06;8.85;;;3.20;;
64244;SDS011;50584;29.058;-110.966;2023-03-01T06:19:32;13.35;;;3.10;;
64244;SDS011;50584;29.058;-110.966;2023-03-01T06:21:57;5.60;;;2.20;;
64244;SDS011;50584;29.058;-110.966;2023-03-01T06:24:23;6.65;;;2.33;;
64244;SDS011;50584;29.058;-110.966;2023-03-01T06:26:49;4.60;;;2.10;;
64244;SDS011;50584;29.058;-110.966;2023-03-01T06:29:15;4.50;;;2.38;;
64244;SDS011;50584;29.058;-110.966;2023-03-01T06:31:40;11.13;;;2.40;;
64244;SDS011;50584;29.058;-110.966;2023-03-01T06:34:06;3.55;;;1.70;;
64244;SDS011;50584;29.058;-110.966;2023-03-01T06:36:32;4.30;;;2.05;;
64244;SDS011;50584;29.058;-110.966;2023-03-01T06:38:58;7.35;;;1.70;;
64244;SDS011;50584;29.058;-110.966;2023-03-01T06:41:23;1.80;;;1.70;;
64244;SDS011;50584;29.058;-110.966;2023-03-01T06:43:49;2.60;;;1.40;;
64244;SDS011;50584;29.058;-110.966;2023-03-01T06:46:15;1.67;;;1.30;;
64244;SDS011;50584;29.058;-110.966;2023-03-01T06:48:41;3.88;;;1.42;;
64244;SDS011;50584;29.058;-110.966;2023-03-01T06:51:07;4.18;;;1.60;;
64244;SDS011;50584;29.058;-110.966;2023-03-01T06:53:32;4.28;;;1.48;;
64244;SDS011;50584;29.058;-110.966;2023-03-01T06:55:58;2.38;;;1.70;;
64244;SDS011;50584;29.058;-110.966;2023-03-01T06:58:25;4.30;;;1.30;;
64244;SDS011;50584;29.058;-110.966;2023-03-01T07:00:51;3.42;;;1.60;;
64244;SDS011;50584;29.058;-110.966;2023-03-01T07:03:17;1.85;;;1.30;;
64244;SDS011;50584;29.058;-110.966;2023-03-01T07:05:43;1.67;;;1.20;;
64244;SDS011;50584;29.058;-110.966;2023-03-01T07:08:09;1.20;;;1.10;;
64244;SDS011;50584;29.058;-110.966;2023-03-01T07:10:35;1.35;;;1.25;;
64244;SDS011;50584;29.058;-110.966;2023-03-01T07:13:01;1.42;;;1.30;;
64244;SDS011;50584;29.058;-110.966;2023-03-01T07:15:27;1.35;;;1.25;;
64244;SDS011;50584;29.058;-110.966;2023-03-01T07:17:53;1.50;;;1.40;;
64244;SDS011;50584;29.058;-110.966;2023-03-01T07:20:19;2.42;;;1.40;;
64244;SDS011;50584;29.058;-110.966;2023-03-01T07:22:53;4.07;;;2.25;;
64244;SDS011;50584;29.058;-110.966;2023-03-01T07:25:19;2.92;;;2.67;;
64244;SDS011;50584;29.058;-110.966;2023-03-01T07:27:48;4.07;;;2.25;;
64244;SDS011;50584;29.058;-110.966;2023-03-01T07:30:14;1.98;;;1.75;;
64244;SDS011;50584;29.058;-110.966;2023-03-01T07:32:40;1.88;;;1.50;;
64244;SDS011;50584;29.058;-110.966;2023-03-01T07:35:06;3.38;;;2.03;;
64244;SDS011;50584;29.058;-110.966;2023-03-01T07:37:32;7.18;;;2.05;;
64244;SDS011;50584;29.058;-110.966;2023-03-01T07:39:58;6.13;;;2.20;;
64244;SDS011;50584;29.058;-110.966;2023-03-01T07:42:23;4.35;;;2.40;;
64244;SDS011;50584;29.058;-110.966;2023-03-01T07:44:49;8.15;;;3.67;;
64244;SDS011;50584;29.058;-110.966;2023-03-01T07:47:15;9.07;;;4.40;;
64244;SDS011;50584;29.058;-110.966;2023-03-01T07:49:41;8.57;;;3.80;;
64244;SDS011;50584;29.058;-110.966;2023-03-01T07:52:06;9.32;;;3.53;;
64244;SDS011;50584;29.058;-110.966;2023-03-01T07:54:34;7.72;;;4.93;;
64244;SDS011;50584;29.058;-110.966;2023-03-01T07:57:00;13.70;;;7.38;;
64244;SDS011;50584;29.058;-110.966;2023-03-01T07:59:26;15.45;;;8.85;;
64244;SDS011;50584;29.058;-110.966;2023-03-01T08:01:54;22.65;;;11.55;;
64244;SDS011;50584;29.058;-110.966;2023-03-01T08:04:21;16.55;;;8.38;;
64244;SDS011;50584;29.058;-110.966;2023-03-01T08:06:46;12.07;;;6.88;;
64244;SDS011;50584;29.058;-110.966;2023-03-01T08:09:12;18.17;;;9.52;;
64244;SDS011;50584;29.058;-110.966;2023-03-01T08:11:38;16.60;;;9.25;;
64244;SDS011;50584;29.058;-110.966;2023-03-01T08:14:04;21.73;;;8.65;;
64244;SDS011;50584;29.058;-110.966;2023-03-01T08:16:29;9.27;;;6.45;;
64244;SDS011;50584;29.058;-110.966;2023-03-01T08:18:55;10.40;;;5.13;;
64244;SDS011;50584;29.058;-110.966;2023-03-01T08:21:24;3.30;;;2.80;;
64244;SDS011;50584;29.058;-110.966;2023-03-01T08:23:50;4.60;;;2.33;;
64244;SDS011;50584;29.058;-110.966;2023-03-01T08:26:17;1.98;;;1.88;;
64244;SDS011;50584;29.058;-110.966;2023-03-01T08:28:44;1.88;;;1.70;;
64244;SDS011;50584;29.058;-110.966;2023-03-01T08:31:16;2.90;;;1.27;;
64244;SDS011;50584;29.058;-110.966;2023-03-01T08:33:42;2.28;;;1.40;;
64244;SDS011;50584;29.058;-110.966;2023-03-01T08:36:08;1.50;;;1.30;;
64244;SDS011;50584;29.058;-110.966;2023-03-01T08:38:34;1.00;;;1.00;;
64244;SDS011;50584;29.058;-110.966;2023-03-01T08:41:01;1.00;;;1.00;;
64244;SDS011;50584;29.058;-110.966;2023-03-01T08:43:27;0.82;;;0.80;;
64244;SDS011;50584;29.058;-110.966;2023-03-01T08:45:52;2.63;;;0.80;;
64244;SDS011;50584;29.058;-110.966;2023-03-01T08:48:18;1.92;;;1.00;;
64244;SDS011;50584;29.058;-110.966;2023-03-01T08:50:44;0.80;;;0.80;;
64244;SDS011;50584;29.058;-110.966;2023-03-01T08:53:10;1.00;;;1.00;;
64244;SDS011;50584;29.058;-110.966;2023-03-01T08:55:36;1.60;;;1.00;;
64244;SDS011;50584;29.058;-110.966;2023-03-01T08:58:02;1.45;;;1.15;;
64244;SDS011;50584;29.058;-110.966;2023-03-01T09:00:28;5.18;;;1.38;;
64244;SDS011;50584;29.058;-110.966;2023-03-01T09:02:53;4.20;;;1.50;;
64244;SDS011;50584;29.058;-110.966;2023-03-01T09:05:19;2.08;;;1.80;;
64244;SDS011;50584;29.058;-110.966;2023-03-01T09:07:45;3.08;;;2.10;;
64244;SDS011;50584;29.058;-110.966;2023-03-01T09:10:11;4.95;;;2.92;;
64244;SDS011;50584;29.058;-110.966;2023-03-01T09:12:37;7.88;;;3.33;;
64244;SDS011;50584;29.058;-110.966;2023-03-01T09:15:02;8.98;;;3.50;;
64244;SDS011;50584;29.058;-110.966;2023-03-01T09:17:28;5.95;;;3.60;;
64244;SDS011;50584;29.058;-110.966;2023-03-01T09:19:54;7.13;;;4.20;;
64244;SDS011;50584;29.058;-110.966;2023-03-01T09:22:20;9.13;;;5.10;;
64244;SDS011;50584;29.058;-110.966;2023-03-01T09:24:46;6.55;;;4.43;;
64244;SDS011;50584;29.058;-110.966;2023-03-01T09:27:11;8.23;;;4.00;;
64244;SDS011;50584;29.058;-110.966;2023-03-01T09:29:39;4.03;;;3.13;;
64244;SDS011;50584;29.058;-110.966;2023-03-01T09:32:05;8.70;;;2.58;;
64244;SDS011;50584;29.058;-110.966;2023-03-01T09:34:33;6.00;;;2.50;;
64244;SDS011;50584;29.058;-110.966;2023-03-01T09:37:19;8.73;;;2.80;;
64244;SDS011;50584;29.058;-110.966;2023-03-01T09:39:44;6.10;;;2.33;;
64244;SDS011;50584;29.058;-110.966;2023-03-01T09:42:10;4.43;;;2.17;;
64244;SDS011;50584;29.058;-110.966;2023-03-01T09:44:42;2.70;;;2.03;;
64244;SDS011;50584;29.058;-110.966;2023-03-01T09:47:20;6.68;;;2.03;;
64244;SDS011;50584;29.058;-110.966;2023-03-01T09:49:53;2.40;;;2.20;;
64244;SDS011;50584;29.058;-110.966;2023-03-01T09:52:39;2.25;;;2.03;;
64244;SDS011;50584;29.058;-110.966;2023-03-01T09:55:12;4.28;;;1.95;;
64244;SDS011;50584;29.058;-110.966;2023-03-01T09:57:49;4.72;;;1.90;;
64244;SDS011;50584;29.058;-110.966;2023-03-01T10:00:37;2.30;;;2.10;;
64244;SDS011;50584;29.058;-110.966;2023-03-01T10:05:41;2.92;;;1.90;;
64244;SDS011;50584;29.058;-110.966;2023-03-01T10:10:36;2.00;;;1.80;;
64244;SDS011;50584;29.058;-110.966;2023-03-01T10:13:04;1.63;;;1.50;;
64244;SDS011;50584;29.058;-110.966;2023-03-01T10:15:35;1.10;;;1.10;;
64244;SDS011;50584;29.058;-110.966;2023-03-01T10:18:10;0.90;;;0.90;;
64244;SDS011;50584;29.058;-110.966;2023-03-01T10:20:58;1.00;;;1.00;;
64244;SDS011;50584;29.058;-110.966;2023-03-01T10:23:25;1.67;;;1.40;;
64244;SDS011;50584;29.058;-110.966;2023-03-01T10:28:53;3.50;;;1.40;;
64244;SDS011;50584;29.058;-110.966;2023-03-01T10:31:20;7.82;;;1.33;;
64244;SDS011;50584;29.058;-110.966;2023-03-01T10:33:47;2.97;;;1.90;;
64244;SDS011;50584;29.058;-110.966;2023-03-01T10:36:16;4.03;;;1.75;;
64244;SDS011;50584;29.058;-110.966;2023-03-01T10:41:14;3.75;;;1.63;;
64244;SDS011;50584;29.058;-110.966;2023-03-01T10:43:45;3.08;;;2.00;;
64244;SDS011;50584;29.058;-110.966;2023-03-01T10:49:22;3.97;;;3.15;;
64244;SDS011;50584;29.058;-110.966;2023-03-01T10:51:41;2.38;;;1.50;;
64244;SDS011;50584;29.058;-110.966;2023-03-01T10:56:50;4.25;;;1.75;;
64244;SDS011;50584;29.058;-110.966;2023-03-01T10:59:38;1.70;;;1.60;;
64244;SDS011;50584;29.058;-110.966;2023-03-01T11:02:24;3.42;;;2.85;;
64244;SDS011;50584;29.058;-110.966;2023-03-01T11:07:23;12.68;;;6.18;;
64244;SDS011;50584;29.058;-110.966;2023-03-01T11:09:49;18.23;;;6.82;;
64244;SDS011;50584;29.058;-110.966;2023-03-01T11:12:15;8.07;;;6.32;;
64244;SDS011;50584;29.058;-110.966;2023-03-01T11:14:52;9.00;;;5.75;;
64244;SDS011;50584;29.058;-110.966;2023-03-01T11:19:59;6.13;;;5.15;;
64244;SDS011;50584;29.058;-110.966;2023-03-01T11:22:25;12.20;;;7.90;;
64244;SDS011;50584;29.058;-110.966;2023-03-01T11:24:52;17.45;;;10.38;;
64244;SDS011;50584;29.058;-110.966;2023-03-01T11:27:28;18.23;;;9.07;;
64244;SDS011;50584;29.058;-110.966;2023-03-01T11:32:24;11.15;;;3.95;;
64244;SDS011;50584;29.058;-110.966;2023-03-01T11:35:05;3.20;;;2.80;;
64244;SDS011;50584;29.058;-110.966;2023-03-01T11:40:22;3.35;;;2.55;;
64244;SDS011;50584;29.058;-110.966;2023-03-01T11:50:58;4.65;;;2.40;;
64244;SDS011;50584;29.058;-110.966;2023-03-01T11:53:34;4.47;;;3.55;;
64244;SDS011;50584;29.058;-110.966;2023-03-01T11:56:06;8.18;;;3.40;;
64244;SDS011;50584;29.058;-110.966;2023-03-01T12:13:49;6.47;;;4.50;;
64244;SDS011;50584;29.058;-110.966;2023-03-01T12:16:24;9.95;;;4.78;;
64244;SDS011;50584;29.058;-110.966;2023-03-01T12:37:12;11.00;;;4.85;;
64244;SDS011;50584;29.058;-110.966;2023-03-01T12:50:36;4.18;;;2.30;;
64244;SDS011;50584;29.058;-110.966;2023-03-01T12:52:56;2.83;;;2.63;;
64244;SDS011;50584;29.058;-110.966;2023-03-01T12:55:38;7.50;;;2.40;;
64244;SDS011;50584;29.058;-110.966;2023-03-01T12:58:23;3.28;;;2.97;;
64244;SDS011;50584;29.058;-110.966;2023-03-01T13:03:21;4.47;;;3.63;;
64244;SDS011;50584;29.058;-110.966;2023-03-01T13:08:22;8.65;;;4.20;;
64244;SDS011;50584;29.058;-110.966;2023-03-01T13:10:58;7.70;;;4.80;;
64244;SDS011;50584;29.058;-110.966;2023-03-01T13:13:26;10.98;;;4.43;;
64244;SDS011;50584;29.058;-110.966;2023-03-01T13:15:52;5.70;;;3.40;;
64244;SDS011;50584;29.058;-110.966;2023-03-01T13:20:52;4.60;;;2.05;;
64244;SDS011;50584;29.058;-110.966;2023-03-01T13:26:00;3.95;;;1.90;;
64244;SDS011;50584;29.058;-110.966;2023-03-01T13:31:02;4.07;;;2.55;;
64244;SDS011;50584;29.058;-110.966;2023-03-01T13:35:57;10.05;;;2.38;;
64244;SDS011;50584;29.058;-110.966;2023-03-01T13:41:02;5.43;;;1.63;;
64244;SDS011;50584;29.058;-110.966;2023-03-01T13:43:32;4.05;;;2.03;;
64244;SDS011;50584;29.058;-110.966;2023-03-01T13:45:58;3.67;;;2.13;;
64244;SDS011;50584;29.058;-110.966;2023-03-01T13:48:26;6.57;;;3.30;;
64244;SDS011;50584;29.058;-110.966;2023-03-01T13:50:54;9.52;;;3.63;;
64244;SDS011;50584;29.058;-110.966;2023-03-01T13:53:22;9.50;;;4.05;;
64244;SDS011;50584;29.058;-110.966;2023-03-01T13:55:55;8.43;;;3.97;;
64244;SDS011;50584;29.058;-110.966;2023-03-01T14:00:46;14.20;;;4.72;;
64244;SDS011;50584;29.058;-110.966;2023-03-01T14:05:42;20.77;;;5.38;;
64244;SDS011;50584;29.058;-110.966;2023-03-01T14:08:21;14.52;;;4.20;;
64244;SDS011;50584;29.058;-110.966;2023-03-01T14:21:08;17.38;;;7.43;;
64244;SDS011;50584;29.058;-110.966;2023-03-01T14:23:34;5.30;;;2.95;;
64244;SDS011;50584;29.058;-110.966;2023-03-01T14:26:01;10.35;;;3.92;;
64244;SDS011;50584;29.058;-110.966;2023-03-01T14:28:31;6.50;;;3.78;;
64244;SDS011;50584;29.058;-110.966;2023-03-01T14:31:02;11.98;;;2.88;;
64244;SDS011;50584;29.058;-110.966;2023-03-01T14:36:06;8.88;;;4.03;;
64244;SDS011;50584;29.058;-110.966;2023-03-01T14:38:33;3.85;;;1.48;;
64244;SDS011;50584;29.058;-110.966;2023-03-01T14:41:02;3.22;;;2.33;;
64244;SDS011;50584;29.058;-110.966;2023-03-01T14:43:29;3.90;;;2.13;;
64244;SDS011;50584;29.058;-110.966;2023-03-01T14:45:55;7.90;;;3.10;;
64244;SDS011;50584;29.058;-110.966;2023-03-01T14:48:21;9.45;;;2.75;;
64244;SDS011;50584;29.058;-110.966;2023-03-01T14:50:47;20.23;;;5.78;;
64244;SDS011;50584;29.058;-110.966;2023-03-01T14:53:22;53.17;;;18.38;;
64244;SDS011;50584;29.058;-110.966;2023-03-01T14:55:50;33.90;;;11.27;;
64244;SDS011;50584;29.058;-110.966;2023-03-01T14:58:19;31.63;;;10.88;;
64244;SDS011;50584;29.058;-110.966;2023-03-01T15:00:56;26.08;;;8.57;;
64244;SDS011;50584;29.058;-110.966;2023-03-01T15:03:29;24.52;;;7.68;;
64244;SDS011;50584;29.058;-110.966;2023-03-01T15:05:55;24.15;;;8.80;;
64244;SDS011;50584;29.058;-110.966;2023-03-01T15:08:24;12.20;;;5.30;;
64244;SDS011;50584;29.058;-110.966;2023-03-01T15:11:01;15.10;;;4.40;;
64244;SDS011;50584;29.058;-110.966;2023-03-01T15:13:34;20.15;;;4.95;;
64244;SDS011;50584;29.058;-110.966;2023-03-01T15:16:10;18.50;;;5.32;;
64244;SDS011;50584;29.058;-110.966;2023-03-01T15:18:36;18.17;;;4.65;;
64244;SDS011;50584;29.058;-110.966;2023-03-01T15:21:22;11.60;;;4.47;;
64244;SDS011;50584;29.058;-110.966;2023-03-01T15:23:49;21.38;;;4.60;;
64244;SDS011;50584;29.058;-110.966;2023-03-01T15:26:58;20.90;;;4.15;;
64244;SDS011;50584;29.058;-110.966;2023-03-01T15:29:04;12.98;;;4.10;;
64244;SDS011;50584;29.058;-110.966;2023-03-01T15:31:41;22.02;;;4.07;;
64244;SDS011;50584;29.058;-110.966;2023-03-01T15:36:52;22.75;;;4.22;;
64244;SDS011;50584;29.058;-110.966;2023-03-01T15:39:38;14.23;;;3.63;;
64244;SDS011;50584;29.058;-110.966;2023-03-01T15:42:05;16.27;;;3.60;;
64244;SDS011;50584;29.058;-110.966;2023-03-01T15:44:32;18.83;;;3.90;;
64244;SDS011;50584;29.058;-110.966;2023-03-01T15:46:58;11.45;;;3.78;;
64244;SDS011;50584;29.058;-110.966;2023-03-01T15:49:40;16.10;;;3.13;;
64244;SDS011;50584;29.058;-110.966;2023-03-01T15:52:26;14.52;;;3.13;;
64244;SDS011;50584;29.058;-110.966;2023-03-01T15:54:56;19.30;;;4.18;;
64244;SDS011;50584;29.058;-110.966;2023-03-01T15:57:22;29.45;;;3.15;;
64244;SDS011;50584;29.058;-110.966;2023-03-01T15:59:48;22.85;;;3.80;;
64244;SDS011;50584;29.058;-110.966;2023-03-01T16:02:14;16.58;;;5.07;;
64244;SDS011;50584;29.058;-110.966;2023-03-01T16:04:40;19.67;;;3.20;;
64244;SDS011;50584;29.058;-110.966;2023-03-01T16:07:06;13.43;;;3.03;;
64244;SDS011;50584;29.058;-110.966;2023-03-01T16:09:32;30.30;;;4.43;;
64244;SDS011;50584;29.058;-110.966;2023-03-01T16:11:58;19.15;;;2.95;;
64244;SDS011;50584;29.058;-110.966;2023-03-01T16:14:23;16.30;;;3.03;;
64244;SDS011;50584;29.058;-110.966;2023-03-01T16:16:49;12.40;;;3.67;;
64244;SDS011;50584;29.058;-110.966;2023-03-01T16:19:15;9.10;;;2.75;;